Ulsteinvik  Ulsteinvik


Beaufortskalaen  Beaufortskalaen


Air quality index  Air quality index


Nedbørsradar more information rain snow radar


Ingen spesiell oppmerksomhet om været er nødvendig.    Det er ingen advarsler

Nære METAR rapporter

   
ENAL - Ålesund
oppdatert: 16-12-2018 21:50
Overskyet  
Overskyet  
   Vind: ØSØ 7.2 m/s
Vind: ØSØ 7.2 m/s
Temperatur: 4°C
Wind Chill: -1°C
Duggpunkt: -6°C
Fuktighet: 48%
Barometer: 1011 hPa
Skyer: Overskyet
Sikt: More than 10 km
Skydetaljer: Overskyet 2621.3 m
ENAL 162050Z 12014KT 9999 OVC086 04/M06 Q1011
ENOV - Ørsta
oppdatert: 16-12-2018 21:50
Klart  
Klart  
   Vind: varierer 2.6 m/s
Vind: varierer 2.6 m/s
Temperatur: 5°C
Wind Chill: 3°C
Duggpunkt: -10°C
Fuktighet: 33%
Barometer: 1011 hPa
Sikt: More than 10 km
Skydetaljer: Klart
ENOV 162050Z VRB05KT CAVOK 05/M10 Q1011 RMK WIND 2175FT 14024KT
ENML - Tafjorden
oppdatert: 16-12-2018 21:50
Klart  
Klart  
   Vind: NNØ 4.1 m/s
Vind: NNØ 4.1 m/s
Temperatur: 2°C
Wind Chill: -2°C
Duggpunkt: -9°C
Fuktighet: 44%
Barometer: 1012 hPa
Sikt: More than 10 km
Skydetaljer: Klart
ENML 162050Z 02008KT CAVOK 02/M09 Q1012
ENML - Molde
oppdatert: 16-12-2018 21:50
Klart  
Klart  
   Vind: NNØ 4.1 m/s
Vind: NNØ 4.1 m/s
Temperatur: 2°C
Wind Chill: -2°C
Duggpunkt: -9°C
Fuktighet: 44%
Barometer: 1012 hPa
Sikt: More than 10 km
Skydetaljer: Klart
ENML 162050Z 02008KT CAVOK 02/M09 Q1012
ENFL - Florø
oppdatert: 16-12-2018 21:50
For det meste skyet  
For det meste skyet  
   Vind: SØ 7.2 m/s
Vind: SØ 7.2 m/s
Temperatur: 6°C
Wind Chill: 2°C
Duggpunkt: -5°C
Fuktighet: 46%
Barometer: 1011 hPa
Skyer: For det meste skyet
Sikt: More than 10 km
Skydetaljer: få skyer 762 m,
For det meste skyet 1828.8 m
ENFL 162050Z 13014KT 9999 FEW025 BKN060 06/M05 Q1011
ENVA - Trondheim
oppdatert: 16-12-2018 21:50
Klart  
Klart  
   Vind: ØSØ 5.7 m/s
Vind: ØSØ 5.7 m/s
Temperatur: 1°C
Wind Chill: -4°C
Duggpunkt: -7°C
Fuktighet: 56%
Barometer: 1016 hPa
Sikt: More than 10 km
Skydetaljer: Klart
ENVA 162050Z 11011KT 080V140 CAVOK 01/M07 Q1016 WS R09 RMK WIND 670FT 14017G35KT
ENBR - Bergen
oppdatert: 16-12-2018 21:50
For det meste skyet  
For det meste skyet  
   Vind: Sør 9.8 m/s
Vind: Sør 9.8 m/s
Temperatur: 4°C
Wind Chill: -2°C
Duggpunkt: -5°C
Fuktighet: 52%
Barometer: 1012 hPa
Skyer: For det meste skyet
Sikt: More than 10 km
Skydetaljer: få skyer 762 m,
For det meste skyet 1828.8 m
ENBR 162050Z 17019KT 9999 FEW025 BKN060 04/M05 Q1012 RMK WIND 1200FT 15022KT
ENZV - Stavanger
oppdatert: 16-12-2018 21:50
For det meste skyet  
For det meste skyet  
   Vind: SØ 8.2 m/s
Vind: SØ 8.2 m/s
Temperatur: 3°C
Wind Chill: -3°C
Duggpunkt: -4°C
Fuktighet: 60%
Barometer: 1013 hPa
Skyer: For det meste skyet
Sikt: More than 10 km
Skydetaljer: For det meste skyet 1005.8 m
ENZV 162050Z 14016KT 9999 BKN033 03/M04 Q1013
ENGM - Oslo
oppdatert: 16-12-2018 21:50
Lett snø, Dis, Overskyet  
Lett snø, Dis, Overskyet  
   Vind: NNØ 4.1 m/s
Vind: NNØ 4.1 m/s
Temperatur: -2°C
Wind Chill: -7°C
Duggpunkt: -3°C
Fuktighet: 93%
Barometer: 1018 hPa
Skyer: Overskyet
Sikt: 4.5 km
Skydetaljer: få skyer 243.8 m,
Overskyet 731.5 m
ENGM 162050Z 03008KT 4500 -SN BR FEW008 OVC024 M02/M03 Q1018 TEMPO 5000 -SN BKN012
ESSA - Stockholm
oppdatert: 16-12-2018 21:50
Snø, Overskyet  
Snø, Overskyet  
   Vind: Øst 3.1 m/s
Vind: Øst 3.1 m/s
Temperatur: -1°C
Wind Chill: -5°C
Duggpunkt: -1°C
Fuktighet: 100%
Barometer: 1019 hPa
Skyer: Overskyet
Sikt: 1.6 km
Skydetaljer: Overskyet 243.8 m
ESSA 162050Z 08006KT 1600 SN VV008 M01/M01 Q1019 R01L/550153 R08/620161 R01R/SNOCLO TEMPO 5000
EKCH - København
oppdatert: 16-12-2018 21:50
For det meste skyet  
For det meste skyet  
   Vind: Sør 5.1 m/s
Vind: Sør 5.1 m/s
Temperatur: 1°C
Wind Chill: -4°C
Duggpunkt: -4°C
Fuktighet: 70%
Barometer: 1015 hPa
Skyer: For det meste skyet
Sikt: More than 10 km
Skydetaljer: For det meste skyet 914.4 m
EKCH 162050Z 18010KT 9999 BKN030 01/M04 Q1015 NOSIG
ENHV - Nordkapp
oppdatert: 16-12-2018 21:50
Delvis Skyet  
Delvis Skyet  
   Vind: SSV 10.3 m/s<br />Gust to 10.3 m/s
Vind: SSV 10.3 m/s
Gust to 10.3 m/s
Temperatur: -5°C
Wind Chill: -14°C
Duggpunkt: -9°C
Fuktighet: 74%
Barometer: 1016 hPa
Skyer: Delvis Skyet
Sikt: More than 10 km
Skydetaljer: Delvis Skyet 975.4 m
ENHV 162050Z 20020G30KT 9999 SCT032 M05/M09 Q1016
ENSB - Svalbard
oppdatert: 16-12-2018 21:50
Delvis Skyet  
Delvis Skyet  
   Vind: VNV 7.2 m/s
Vind: VNV 7.2 m/s
Temperatur: -10°C
Wind Chill: -19°C
Duggpunkt: -17°C
Fuktighet: 57%
Barometer: 1010 hPa
Skyer: Delvis Skyet
Sikt: More than 10 km
Skydetaljer: Delvis Skyet 914.4 m
ENSB 162050Z 29014KT 9999 SCT030 M10/M17 Q1010 RMK WIND 1400FT 28014KT
NZSP - Sørpolen
oppdatert: 16-12-2018 21:50
Low Drifting, Snø, få skyer  
Low Drifting, Snø, få skyer  
   Vind: NNØ 6.7 m/s<br />Gust to 6.7 m/s
Vind: NNØ 6.7 m/s
Gust to 6.7 m/s
Temperatur: -20°C
Wind Chill: -31°C
Barometer: 978.7 hPa
Skyer: få skyer
Sikt: More than 10 km
Skydetaljer: få skyer 3048 m
NZSP 162050Z 03013G20KT 9999 DRSN FEW100 M20/ A2890 RMK CLN AIR 03014G20KT ALL WNDS GRID SDG/HDG
 

Script utviklet av  Saratoga-weather.org Tilrettelagt for malen av  Weerstation Leuven

Utstyr vi bruker:

Værstsjon
Davis VP2+ 24/H Fars, Online-Ups, 4G Backup.

Værprogram
Weather Display

Ekstra utstyr
Custom builds pcs

Provider
Hosted By Pro Isp

Davis VP2+ 24/H Fars, Online-Ups, 4G Backup.

Weather Display

Custom builds pcs

Hosted By Pro Isp


*